Time;durP1;ratioP1;P1;durP2;ratioP2;P2;SDS_P1;SDS_P2;PMS_P1;PMS_P2;Temp;Humidity;BMP_temperature;BMP_pressure;BME280_temperature;BME280_humidity;BME280_pressure;Samples;Min_cycle;Max_cycle;Signal;HPM_P1;HPM_P2
2022/06/02 00:02:33;;;;;;;2.40;1.70;;;17.90;75.80;18.20;96497.00;;;;5057150;28;20196;-92
2022/06/02 00:05:16;;;;;;;1.70;1.60;;;17.90;75.60;18.20;96506.00;;;;5071345;28;20228;-92
2022/06/02 00:08:03;;;;;;;1.47;1.37;;;17.80;75.60;18.20;96502.00;;;;5071912;28;20192;-91
2022/06/02 00:10:50;;;;;;;1.80;1.70;;;17.80;75.60;18.20;96502.00;;;;5071015;28;20226;-88
2022/06/02 00:13:27;;;;;;;1.97;1.87;;;17.80;75.60;18.10;96506.00;;;;5070143;28;20192;-91
2022/06/02 00:16:01;;;;;;;1.83;1.73;;;17.70;75.50;18.10;96512.00;;;;5070848;28;20200;-93
2022/06/02 00:18:40;;;;;;;1.90;1.80;;;17.80;75.30;18.10;96512.00;;;;5072521;28;20692;-91
2022/06/02 00:21:26;;;;;;;2.10;1.90;;;17.70;75.40;18.00;96514.00;;;;5070473;28;20277;-92
2022/06/02 00:24:01;;;;;;;1.90;1.80;;;17.60;75.50;18.00;96510.00;;;;5072445;28;20198;-92
2022/06/02 00:26:47;;;;;;;1.90;1.80;;;17.60;75.50;18.00;96509.00;;;;5070559;28;20230;-92
2022/06/02 00:29:26;;;;;;;1.80;1.70;;;17.60;75.60;17.90;96521.00;;;;5070712;28;20192;-91
2022/06/02 00:32:04;;;;;;;1.97;1.87;;;17.50;75.30;17.90;96520.00;;;;5086308;22;20861;-86
2022/06/02 00:34:43;;;;;;;1.87;1.77;;;17.50;75.30;17.90;96512.00;;;;5090787;28;20676;-86
2022/06/02 00:37:32;;;;;;;1.43;1.37;;;17.40;75.30;17.80;96516.00;;;;5082878;28;20206;-86
2022/06/02 00:40:02;;;;;;;2.17;1.97;;;17.40;75.20;17.80;96529.00;;;;5090588;28;20553;-86
2022/06/02 00:42:42;;;;;;;2.20;1.60;;;17.40;75.10;17.80;96531.00;;;;5082314;28;20247;-86
2022/06/02 00:45:14;;;;;;;2.20;2.00;;;17.30;75.10;17.70;96533.00;;;;5072965;28;20220;-86
2022/06/02 00:47:53;;;;;;;2.03;1.80;;;17.60;75.40;17.70;96539.00;;;;5070256;28;20208;-86
2022/06/02 00:50:56;;;;;;;2.10;2.00;;;17.30;76.10;17.70;96533.00;;;;5070121;28;20196;-86
2022/06/02 00:57:30;;;;;;;1.73;1.53;;;17.30;75.60;17.60;96538.00;;;;5060559;28;20723;-86
2022/06/02 00:59:37;;;;;;;2.83;1.80;;;17.20;75.40;17.60;96540.00;;;;5070956;28;20199;-87
2022/06/02 01:02:05;;;;;;;2.10;2.00;;;17.20;75.50;17.50;96545.00;;;;5069719;28;20229;-88
2022/06/02 01:04:39;;;;;;;3.13;2.40;;;17.10;75.50;17.50;96548.00;;;;5070813;28;20407;-87
2022/06/02 01:07:27;;;;;;;1.87;1.77;;;17.10;75.50;17.50;96546.00;;;;5069881;28;20190;-88
2022/06/02 01:10:19;;;;;;;1.93;1.83;;;17.10;75.70;17.40;96545.00;;;;5056378;28;20204;-88
2022/06/02 01:13:11;;;;;;;2.73;1.90;;;17.10;75.70;17.40;96552.00;;;;5073050;28;20463;-87
2022/06/02 01:15:57;;;;;;;1.93;1.83;;;17.00;75.60;17.40;96559.00;;;;5071137;28;20200;-88
2022/06/02 01:18:43;;;;;;;2.60;1.60;;;17.30;76.00;17.40;96557.00;;;;5075088;28;20223;-88
2022/06/02 01:21:53;;;;;;;2.17;1.97;;;17.00;75.90;17.40;96540.00;;;;5073419;28;20200;-87
2022/06/02 01:25:19;;;;;;;1.83;1.73;;;17.00;75.90;17.30;96545.00;;;;5063855;28;20274;-87
2022/06/02 01:28:27;;;;;;;1.90;1.80;;;16.90;75.90;17.30;96548.00;;;;4993894;28;20194;-88
2022/06/02 01:31:07;;;;;;;1.87;1.77;;;16.90;76.10;17.30;96551.00;;;;5064573;28;20191;-87
2022/06/02 01:33:49;;;;;;;2.00;1.90;;;16.90;75.90;17.20;96550.00;;;;5068480;28;20224;-87
2022/06/02 01:36:29;;;;;;;1.90;1.80;;;16.80;76.00;17.20;96547.00;;;;5067812;28;20196;-87
2022/06/02 01:39:20;;;;;;;2.10;2.00;;;16.70;76.00;17.20;96526.00;;;;5070803;28;20283;-87
2022/06/02 01:42:04;;;;;;;2.00;1.80;;;17.20;76.10;17.10;96545.00;;;;5063648;28;20662;-87
2022/06/02 01:44:45;;;;;;;1.67;1.57;;;16.90;75.80;17.10;96550.00;;;;5070011;28;20188;-87
2022/06/02 01:47:21;;;;;;;1.43;1.37;;;16.70;75.50;17.10;96538.00;;;;5068751;28;20197;-88
2022/06/02 01:50:13;;;;;;;2.27;1.67;;;16.70;75.30;17.00;96551.00;;;;5069801;28;20196;-86
2022/06/02 01:52:50;;;;;;;1.70;1.60;;;16.70;75.40;17.00;96547.00;;;;5069058;28;20215;-86
2022/06/02 01:55:55;;;;;;;1.80;1.70;;;16.60;75.50;17.00;96552.00;;;;5071858;28;20219;-87
2022/06/02 01:58:51;;;;;;;1.90;1.80;;;16.70;75.80;17.00;96554.00;;;;5070535;28;20569;-87
2022/06/02 02:01:34;;;;;;;1.90;1.80;;;16.60;76.10;16.90;96555.00;;;;5072547;28;20188;-87
2022/06/02 02:04:31;;;;;;;1.73;1.63;;;16.70;76.00;16.90;96553.00;;;;5073792;28;20192;-88
2022/06/02 02:07:10;;;;;;;1.80;1.70;;;16.60;75.80;16.90;96546.00;;;;5072823;28;20575;-88
2022/06/02 02:09:56;;;;;;;1.80;1.70;;;16.50;75.70;16.80;96566.00;;;;5073781;28;20243;-88
2022/06/02 02:12:44;;;;;;;2.00;1.90;;;16.50;75.90;16.80;96561.00;;;;5072305;28;20265;-88
2022/06/02 02:15:28;;;;;;;2.30;1.70;;;16.50;76.00;16.80;96564.00;;;;5050410;28;20214;-87
2022/06/02 02:18:18;;;;;;;1.77;1.67;;;16.50;76.10;16.80;96559.00;;;;5068429;28;20263;-87
2022/06/02 02:21:15;;;;;;;1.97;1.80;;;16.40;76.00;16.80;96562.00;;;;5072614;28;20215;-88
2022/06/02 02:24:02;;;;;;;2.03;1.93;;;16.40;75.90;16.80;96554.00;;;;5072522;28;20219;-88
2022/06/02 02:26:38;;;;;;;1.90;1.80;;;16.40;75.90;16.80;96560.00;;;;5070536;28;20296;-88
2022/06/02 02:29:21;;;;;;;2.07;1.80;;;16.50;75.70;16.70;96565.00;;;;5066823;28;20198;-88
2022/06/02 02:32:01;;;;;;;2.13;1.60;;;16.40;75.50;16.70;96557.00;;;;5073443;28;20215;-87
2022/06/02 02:34:46;;;;;;;2.00;1.90;;;16.40;75.60;16.70;96561.00;;;;5072757;28;20670;-88
2022/06/02 02:37:22;;;;;;;1.60;1.50;;;16.30;75.50;16.70;96567.00;;;;5072924;28;20195;-87
2022/06/02 02:40:00;;;;;;;3.13;1.97;;;16.30;75.50;16.60;96554.00;;;;5072509;28;20286;-88
2022/06/02 02:42:37;;;;;;;1.50;1.40;;;16.30;75.60;16.60;96560.00;;;;5072178;28;20215;-87
2022/06/02 02:45:26;;;;;;;2.00;1.80;;;16.20;75.60;16.60;96567.00;;;;5071884;28;20706;-88
2022/06/02 02:48:00;;;;;;;1.97;1.87;;;16.20;75.70;16.60;96557.00;;;;5071208;28;20204;-87
2022/06/02 02:50:33;;;;;;;2.27;2.10;;;16.60;76.10;16.50;96550.00;;;;5072191;28;20192;-87
2022/06/02 02:53:11;;;;;;;1.97;1.87;;;16.10;76.20;16.50;96545.00;;;;5072634;28;20273;-86
2022/06/02 02:55:47;;;;;;;2.30;1.70;;;16.20;76.40;16.50;96551.00;;;;5070269;28;20199;-86
2022/06/02 02:58:24;;;;;;;2.10;2.00;;;16.10;76.40;16.50;96562.00;;;;5068024;28;20191;-87
2022/06/02 03:01:03;;;;;;;4.33;2.00;;;16.10;76.40;16.50;96568.00;;;;5072577;28;20200;-86
2022/06/02 03:03:39;;;;;;;2.00;1.90;;;16.10;76.50;16.50;96573.00;;;;5071069;28;20216;-87
2022/06/02 03:06:20;;;;;;;2.20;2.03;;;16.20;76.60;16.50;96572.00;;;;5070746;28;20229;-86
2022/06/02 03:09:00;;;;;;;2.30;2.10;;;16.10;76.70;16.50;96572.00;;;;5071091;28;20199;-87
2022/06/02 03:11:57;;;;;;;2.10;2.00;;;16.10;76.90;16.50;96583.00;;;;5072583;28;20204;-87
2022/06/02 03:14:42;;;;;;;2.87;2.23;;;16.10;77.40;16.60;96582.00;;;;5069061;28;20198;-87
2022/06/02 03:17:35;;;;;;;2.20;2.10;;;16.10;77.30;16.60;96584.00;;;;5064368;28;20294;-87
2022/06/02 03:20:14;;;;;;;1.70;1.60;;;16.10;77.40;16.60;96587.00;;;;5065188;28;20279;-87
2022/06/02 03:23:06;;;;;;;2.00;1.90;;;16.10;77.30;16.60;96586.00;;;;5071740;28;20222;-87
2022/06/02 03:25:41;;;;;;;2.30;2.10;;;16.10;77.40;16.60;96586.00;;;;5069460;28;20751;-87
2022/06/02 03:28:30;;;;;;;3.07;2.10;;;16.20;77.50;16.60;96579.00;;;;5071520;28;20196;-87
2022/06/02 03:31:08;;;;;;;2.00;1.90;;;16.20;77.60;16.60;96585.00;;;;5071098;28;20211;-87
2022/06/02 03:34:06;;;;;;;2.17;2.07;;;16.30;77.60;16.60;96588.00;;;;5071712;28;20306;-87
2022/06/02 03:37:06;;;;;;;2.03;1.70;;;16.30;77.90;16.60;96588.00;;;;5070470;28;20520;-87
2022/06/02 03:39:52;;;;;;;2.13;2.03;;;16.20;77.60;16.70;96586.00;;;;5069613;28;20188;-88
2022/06/02 03:42:36;;;;;;;2.37;2.10;;;16.20;78.10;16.70;96584.00;;;;5062021;28;20227;-87
2022/06/02 03:45:19;;;;;;;2.10;2.00;;;16.20;77.70;16.70;96583.00;;;;5065417;28;20192;-87
2022/06/02 03:48:23;;;;;;;2.20;2.10;;;16.20;77.60;16.70;96581.00;;;;5074101;28;20282;-88
2022/06/02 03:51:07;;;;;;;2.10;2.00;;;16.30;78.30;16.70;96600.00;;;;5065049;28;20211;-87
2022/06/02 03:54:02;;;;;;;2.17;2.07;;;16.30;78.10;16.80;96595.00;;;;5068833;28;20690;-87
2022/06/02 03:56:53;;;;;;;2.07;1.97;;;16.30;78.10;16.80;96602.00;;;;5070313;28;20207;-88
2022/06/02 03:59:55;;;;;;;2.10;1.90;;;16.60;78.20;16.80;96587.00;;;;5071028;28;20188;-87
2022/06/02 04:02:30;;;;;;;2.30;2.00;;;16.30;78.20;16.80;96594.00;;;;5070530;28;20211;-87
2022/06/02 04:05:17;;;;;;;2.03;1.93;;;16.30;78.00;16.80;96598.00;;;;5063699;28;20241;-88
2022/06/02 04:08:04;;;;;;;2.53;2.27;;;16.30;78.20;16.90;96603.00;;;;5071258;28;20204;-88
2022/06/02 04:10:42;;;;;;;2.07;1.90;;;16.40;78.30;16.90;96612.00;;;;5071051;28;20192;-87
2022/06/02 04:13:38;;;;;;;2.00;1.83;;;16.40;78.50;17.00;96601.00;;;;5068947;28;20759;-87
2022/06/02 04:16:42;;;;;;;2.37;2.20;;;16.40;79.10;17.00;96611.00;;;;5063210;28;20203;-87
2022/06/02 04:22:31;;;;;;;3.53;2.20;;;16.50;79.50;17.10;96604.00;;;;5070051;28;20238;-87
2022/06/02 04:25:16;;;;;;;2.37;2.27;;;16.60;79.60;17.10;96618.00;;;;5061696;28;20200;-87
2022/06/02 04:27:53;;;;;;;3.23;2.70;;;16.60;79.70;17.20;96617.00;;;;5066673;28;20903;-85
2022/06/02 04:30:37;;;;;;;2.60;2.50;;;16.60;79.70;17.30;96621.00;;;;5067467;28;20192;-85
2022/06/02 04:33:15;;;;;;;2.70;2.50;;;16.70;79.90;17.30;96635.00;;;;5069180;28;20574;-85
2022/06/02 04:35:54;;;;;;;2.20;2.10;;;16.70;80.30;17.40;96637.00;;;;5070340;28;20188;-85
2022/06/02 04:38:31;;;;;;;2.47;2.30;;;16.80;80.40;17.50;96632.00;;;;5071731;28;20202;-85
2022/06/02 04:41:12;;;;;;;2.83;2.60;;;16.80;80.60;17.60;96634.00;;;;5070369;28;20188;-85
2022/06/02 04:43:50;;;;;;;2.80;2.47;;;16.90;80.60;17.70;96635.00;;;;5070135;28;20303;-85
2022/06/02 04:46:48;;;;;;;2.73;2.53;;;17.00;80.60;17.80;96631.00;;;;5069154;28;20234;-85
2022/06/02 04:49:32;;;;;;;2.93;2.73;;;17.00;80.60;17.90;96637.00;;;;5067574;28;20198;-85
2022/06/02 04:52:14;;;;;;;2.70;2.57;;;17.20;80.50;17.90;96633.00;;;;5069940;28;20701;-85
2022/06/02 04:54:54;;;;;;;2.60;2.50;;;17.20;80.20;18.00;96647.00;;;;5069606;28;20211;-85
2022/06/02 04:57:30;;;;;;;2.30;2.20;;;17.30;80.20;18.00;96643.00;;;;5069478;28;20278;-85
2022/06/02 05:00:07;;;;;;;2.60;2.50;;;17.30;80.10;18.10;96635.00;;;;5065291;28;20196;-85
2022/06/02 05:02:52;;;;;;;2.60;2.33;;;17.40;80.30;18.20;96642.00;;;;5069863;28;20215;-85
2022/06/02 05:05:32;;;;;;;2.80;2.60;;;17.50;80.50;18.30;96645.00;;;;5068208;28;20203;-84
2022/06/02 05:08:38;;;;;;;2.70;2.50;;;17.60;80.60;18.40;96644.00;;;;5069772;28;20556;-85
2022/06/02 05:11:21;;;;;;;2.80;2.70;;;18.00;80.80;18.50;96648.00;;;;5069912;28;20313;-85
2022/06/02 05:14:02;;;;;;;2.63;2.43;;;17.70;80.30;18.50;96656.00;;;;5069641;28;20222;-85
2022/06/02 05:16:44;;;;;;;2.60;2.40;;;17.80;80.00;18.60;96658.00;;;;5069560;28;20200;-85
2022/06/02 05:19:49;;;;;;;2.73;2.53;;;17.80;79.90;18.60;96654.00;;;;5066536;28;20222;-85
2022/06/02 05:23:17;;;;;;;2.90;2.70;;;17.90;79.70;18.70;96666.00;;;;5065187;28;20238;-86
2022/06/02 05:26:08;;;;;;;3.47;2.57;;;18.00;79.40;18.70;96661.00;;;;5007345;28;20664;-86
2022/06/02 05:29:30;;;;;;;2.53;2.37;;;18.00;79.20;18.70;96666.00;;;;5068290;28;20204;-86
2022/06/02 05:32:54;;;;;;;2.60;2.40;;;18.10;79.00;18.80;96675.00;;;;5073255;28;20231;-86
2022/06/02 05:36:01;;;;;;;2.63;2.43;;;18.10;78.70;18.80;96680.00;;;;5069646;28;20214;-86
2022/06/02 05:39:06;;;;;;;2.50;2.40;;;18.10;78.40;18.80;96680.00;;;;5070016;28;20196;-86
2022/06/02 05:41:58;;;;;;;3.13;2.53;;;18.20;78.30;18.90;96673.00;;;;5071290;28;20286;-84
2022/06/02 05:44:51;;;;;;;2.57;2.43;;;18.20;78.40;19.00;96676.00;;;;5067058;28;20677;-86
2022/06/02 05:47:38;;;;;;;2.77;2.57;;;18.20;78.30;19.10;96681.00;;;;5071285;28;20219;-85
2022/06/02 05:50:23;;;;;;;2.80;2.60;;;18.40;78.30;19.20;96682.00;;;;5070448;28;20298;-85
2022/06/02 05:53:04;;;;;;;3.00;2.70;;;18.40;78.30;19.30;96682.00;;;;5065350;28;20496;-86
2022/06/02 05:55:54;;;;;;;3.37;2.90;;;18.50;78.20;19.40;96684.00;;;;5073194;28;20196;-82
2022/06/02 05:58:51;;;;;;;2.70;2.50;;;18.60;77.90;19.50;96686.00;;;;5077880;28;20184;-82
2022/06/02 06:01:32;;;;;;;2.57;2.23;;;18.70;77.70;19.60;96691.00;;;;5076346;28;20192;-83
2022/06/02 06:04:54;;;;;;;2.50;2.30;;;18.70;77.60;19.60;96699.00;;;;5055500;28;20196;-82
2022/06/02 06:07:37;;;;;;;3.10;2.40;;;18.80;77.00;19.70;96701.00;;;;5049183;28;20216;-83
2022/06/02 06:10:12;;;;;;;2.33;2.20;;;18.90;76.90;19.70;96701.00;;;;5072549;28;20192;-82
2022/06/02 06:13:21;;;;;;;3.13;2.83;;;18.90;76.90;19.80;96698.00;;;;5077293;28;20219;-83
2022/06/02 06:16:00;;;;;;;2.80;2.60;;;19.00;76.70;19.80;96701.00;;;;5075908;28;20196;-83
2022/06/02 06:18:52;;;;;;;3.00;2.80;;;18.90;76.00;19.80;96706.00;;;;5079512;28;20192;-82
2022/06/02 06:21:36;;;;;;;4.10;2.90;;;19.10;76.00;19.90;96711.00;;;;5059103;28;20409;-82
2022/06/02 06:24:43;;;;;;;2.70;2.50;;;19.10;76.30;19.90;96715.00;;;;5073484;28;20192;-83
2022/06/02 06:27:21;;;;;;;2.60;2.40;;;19.20;76.40;20.00;96708.00;;;;5067717;28;20219;-82
2022/06/02 06:30:08;;;;;;;2.73;2.57;;;19.20;76.50;20.10;96705.00;;;;5068505;28;20321;-83
2022/06/02 06:32:47;;;;;;;2.90;2.70;;;19.30;76.20;20.10;96715.00;;;;5096153;22;20262;-82
2022/06/02 06:35:42;;;;;;;3.23;2.93;;;19.30;76.40;20.10;96718.00;;;;5098872;28;20198;-79
2022/06/02 06:38:41;;;;;;;2.70;2.50;;;19.40;76.20;20.10;96713.00;;;;5100823;28;20192;-81
2022/06/02 06:41:38;;;;;;;2.30;2.20;;;19.40;75.90;20.10;96707.00;;;;5078449;28;20199;-80
2022/06/02 06:44:18;;;;;;;3.20;2.90;;;19.40;76.10;20.20;96712.00;;;;5068492;28;20223;-81
2022/06/02 06:46:57;;;;;;;3.33;3.10;;;19.40;75.80;20.20;96715.00;;;;5075675;28;20718;-80
2022/06/02 06:49:51;;;;;;;2.67;2.47;;;19.40;75.30;20.10;96707.00;;;;5087069;22;20296;-83
2022/06/02 06:53:01;;;;;;;4.37;2.87;;;19.50;75.30;20.10;96708.00;;;;5066047;28;20226;-84
2022/06/02 06:55:57;;;;;;;2.53;2.33;;;19.50;75.80;20.20;96711.00;;;;5072265;28;20200;-84
2022/06/02 06:58:46;;;;;;;6.90;2.70;;;19.50;76.30;20.20;96713.00;;;;5068889;28;20688;-84
2022/06/02 07:01:27;;;;;;;2.83;2.63;;;19.60;75.20;20.20;96716.00;;;;5079174;28;20283;-84
2022/06/02 07:04:14;;;;;;;2.97;2.77;;;19.60;75.30;20.30;96718.00;;;;5074725;28;20634;-84
2022/06/02 07:06:54;;;;;;;2.60;2.40;;;19.60;75.40;20.40;96713.00;;;;5074324;28;20706;-84
2022/06/02 07:09:32;;;;;;;2.70;2.50;;;19.70;75.50;20.50;96723.00;;;;5077207;28;20220;-83
2022/06/02 07:15:04;;;;;;;2.67;2.47;;;19.90;75.50;20.80;96720.00;;;;5076795;28;20253;-84
2022/06/02 07:17:47;;;;;;;2.60;2.50;;;20.00;75.30;21.00;96728.00;;;;5082467;28;20254;-84
2022/06/02 07:20:29;;;;;;;2.70;2.60;;;20.10;75.00;21.20;96730.00;;;;5076982;28;20208;-84
2022/06/02 07:23:10;;;;;;;2.60;2.50;;;20.30;74.40;21.40;96730.00;;;;5064414;28;20196;-83
2022/06/02 07:25:51;;;;;;;2.87;2.67;;;20.40;74.00;21.50;96734.00;;;;5071657;28;20562;-85
2022/06/02 07:28:33;;;;;;;3.57;2.50;;;20.60;74.00;21.70;96745.00;;;;5071836;28;20253;-84
2022/06/02 07:31:21;;;;;;;3.00;2.80;;;20.70;73.70;21.90;96745.00;;;;5070677;28;20292;-84
2022/06/02 07:34:24;;;;;;;2.80;2.60;;;20.80;73.80;22.10;96741.00;;;;5075662;28;20206;-84
2022/06/02 07:37:40;;;;;;;2.40;2.30;;;21.00;73.80;22.40;96747.00;;;;5069469;28;20198;-84
2022/06/02 07:40:33;;;;;;;2.50;2.30;;;21.20;73.70;22.60;96740.00;;;;5070969;28;20286;-84
2022/06/02 07:43:58;;;;;;;2.80;2.57;;;21.40;73.50;23.00;96732.00;;;;5067710;28;20196;-83
2022/06/02 07:46:54;;;;;;;2.80;2.60;;;21.60;72.40;23.20;96740.00;;;;4996592;28;20277;-83
2022/06/02 07:49:46;;;;;;;3.20;2.57;;;21.80;72.40;23.40;96743.00;;;;4990421;28;20245;-83
2022/06/02 07:52:27;;;;;;;2.53;2.33;;;22.00;71.60;23.60;96732.00;;;;5054173;28;20291;-83
2022/06/02 07:55:03;;;;;;;2.90;2.70;;;22.20;72.00;23.80;96740.00;;;;5074335;28;20195;-83
2022/06/02 07:57:49;;;;;;;2.80;2.33;;;22.40;71.70;24.10;96747.00;;;;5071825;28;20227;-83
2022/06/02 08:00:20;;;;;;;2.70;2.50;;;22.50;71.60;24.30;96753.00;;;;5072205;28;20221;-84
2022/06/02 08:03:29;;;;;;;2.70;2.50;;;22.70;70.90;24.50;96757.00;;;;5078990;28;20246;-84
2022/06/02 08:06:03;;;;;;;2.70;2.50;;;22.80;70.40;24.80;96753.00;;;;5067099;28;20201;-83
2022/06/02 08:08:56;;;;;;;2.63;2.43;;;23.00;70.40;25.00;96756.00;;;;5078466;28;21007;-83
2022/06/02 08:11:42;;;;;;;2.17;2.07;;;23.20;69.30;25.30;96756.00;;;;5068783;28;20193;-83
2022/06/02 08:14:33;;;;;;;2.77;2.20;;;23.40;68.80;25.60;96758.00;;;;5071975;28;20221;-83
2022/06/02 08:17:16;;;;;;;2.17;2.00;;;23.50;68.30;26.00;96764.00;;;;5058943;28;20709;-84
2022/06/02 08:20:31;;;;;;;2.50;2.30;;;23.70;69.20;26.40;96763.00;;;;5071598;28;20222;-83
2022/06/02 08:23:11;;;;;;;1.93;1.83;;;24.00;66.40;26.80;96773.00;;;;5064641;28;20543;-83
2022/06/02 08:25:51;;;;;;;2.07;1.93;;;24.20;68.70;27.10;96771.00;;;;5070528;28;20211;-83
2022/06/02 08:28:48;;;;;;;2.00;1.90;;;24.40;68.00;27.50;96782.00;;;;5066656;28;20230;-83
2022/06/02 08:31:43;;;;;;;2.37;2.20;;;24.70;66.70;27.90;96779.00;;;;5067461;28;20202;-84
2022/06/02 08:34:17;;;;;;;2.30;2.20;;;24.90;67.20;28.20;96784.00;;;;5068042;28;20306;-84
2022/06/02 08:37:02;;;;;;;3.23;2.40;;;25.20;66.70;28.50;96791.00;;;;5085933;28;20214;-85
2022/06/02 08:40:02;;;;;;;2.20;2.10;;;25.40;65.40;28.70;96783.00;;;;5073365;28;20193;-84
2022/06/02 08:43:17;;;;;;;1.97;1.87;;;25.60;63.10;28.80;96782.00;;;;5072799;28;20641;-83
2022/06/02 08:46:34;;;;;;;3.13;2.10;;;25.80;62.30;29.10;96782.00;;;;5072779;28;21369;-84
2022/06/02 08:50:12;;;;;;;3.10;1.87;;;26.00;62.90;29.40;96785.00;;;;5056650;28;20651;-83
2022/06/02 08:53:33;;;;;;;3.05;1.92;;;26.30;60.80;29.80;96789.00;;;;5056889;28;20231;-84
2022/06/02 08:56:57;;;;;;;2.13;2.03;;;26.60;62.40;30.30;96797.00;;;;5068003;28;20642;-83
2022/06/02 09:00:26;;;;;;;1.70;1.60;;;26.90;61.40;30.70;96795.00;;;;5045834;28;20307;-84
2022/06/02 09:04:02;;;;;;;1.50;1.40;;;27.30;61.40;31.10;96798.00;;;;5063490;28;20222;-84
2022/06/02 09:07:03;;;;;;;1.92;1.83;;;27.70;61.90;31.50;96810.00;;;;5008687;28;20197;-84
2022/06/02 09:10:34;;;;;;;2.10;1.92;;;28.10;61.80;31.90;96819.00;;;;5005009;28;20595;-83
2022/06/02 09:14:19;;;;;;;1.60;1.50;;;28.50;59.90;32.30;96828.00;;;;5064682;28;20206;-83
2022/06/02 09:17:11;;;;;;;2.42;1.60;;;28.90;59.40;32.60;96821.00;;;;5022397;28;20204;-84
2022/06/02 09:20:17;;;;;;;1.77;1.63;;;29.30;59.60;32.90;96827.00;;;;5050342;28;20608;-84
2022/06/02 09:23:03;;;;;;;1.42;1.30;;;29.60;58.80;33.20;96821.00;;;;5069682;28;20254;-84
2022/06/02 09:25:56;;;;;;;1.40;1.30;;;30.00;58.10;33.40;96821.00;;;;5071518;28;20598;-84
2022/06/02 09:28:55;;;;;;;1.85;1.17;;;30.40;56.30;33.60;96831.00;;;;5070140;28;20247;-84
2022/06/02 09:32:12;;;;;;;1.30;1.30;;;30.80;54.80;33.50;96831.00;;;;5054399;28;20724;-84
2022/06/02 09:35:20;;;;;;;1.27;1.17;;;31.00;52.90;33.60;96826.00;;;;5064555;28;20215;-85
2022/06/02 09:38:27;;;;;;;2.45;1.40;;;31.30;53.30;33.70;96838.00;;;;5070262;28;20220;-84
2022/06/02 09:41:42;;;;;;;1.63;1.52;;;31.50;50.50;33.80;96827.00;;;;5071568;28;20669;-85
2022/06/02 09:44:27;;;;;;;1.45;1.35;;;31.80;51.90;33.90;96828.00;;;;5050667;28;20871;-84
2022/06/02 09:47:52;;;;;;;1.70;1.30;;;32.20;50.80;34.00;96827.00;;;;5070332;28;20204;-84
2022/06/02 09:51:04;;;;;;;1.35;1.30;;;32.50;49.80;34.00;96835.00;;;;5070082;28;20245;-84
2022/06/02 09:54:18;;;;;;;1.00;1.00;;;32.90;48.60;34.00;96828.00;;;;5070460;28;20257;-84
2022/06/02 10:00:33;;;;;;;4.15;2.55;;;33.40;48.10;34.20;96830.00;;;;5067544;28;20733;-84
2022/06/02 10:03:46;;;;;;;2.53;2.33;;;33.70;49.70;34.30;96830.00;;;;5071027;28;20214;-85
2022/06/02 10:07:24;;;;;;;3.30;1.60;;;33.90;46.90;34.10;96826.00;;;;5070304;28;20188;-84
2022/06/02 10:10:42;;;;;;;1.50;1.40;;;34.00;46.50;34.10;96821.00;;;;5008508;28;20693;-84
2022/06/02 10:14:26;;;;;;;1.50;1.40;;;34.20;48.30;34.20;96820.00;;;;5008460;28;20297;-85
2022/06/02 10:17:43;;;;;;;1.23;1.13;;;34.30;48.00;34.30;96822.00;;;;5074494;28;20286;-84
2022/06/02 10:21:10;;;;;;;1.33;1.05;;;34.50;48.20;34.40;96830.00;;;;5074316;28;20204;-84
2022/06/02 10:24:36;;;;;;;1.55;1.45;;;34.60;47.40;34.50;96817.00;;;;5073349;28;20196;-84
2022/06/02 10:27:43;;;;;;;1.27;1.17;;;34.70;46.50;34.50;96820.00;;;;5064528;28;20283;-84
2022/06/02 10:31:06;;;;;;;1.38;1.27;;;34.80;45.90;34.40;96825.00;;;;5056475;28;20414;-84
2022/06/02 10:34:27;;;;;;;2.72;1.48;;;34.80;44.80;34.40;96828.00;;;;5053983;28;20210;-84
2022/06/02 10:37:32;;;;;;;1.30;1.20;;;34.80;44.80;34.30;96817.00;;;;5054097;28;20260;-85
2022/06/02 10:40:41;;;;;;;1.70;1.50;;;34.60;44.50;34.10;96818.00;;;;5054043;28;20208;-84
2022/06/02 10:44:18;;;;;;;2.10;1.20;;;34.50;43.10;33.80;96821.00;;;;5054008;28;20205;-84
2022/06/02 10:47:44;;;;;;;1.45;1.35;;;34.30;41.30;33.40;96826.00;;;;4992129;28;20202;-84
2022/06/02 10:50:36;;;;;;;1.05;0.90;;;34.00;42.60;33.20;96828.00;;;;5000121;28;20205;-84
2022/06/02 10:53:54;;;;;;;0.98;0.90;;;33.80;43.60;33.00;96824.00;;;;5074034;28;20180;-84
2022/06/02 10:57:19;;;;;;;1.23;0.82;;;33.50;43.30;32.80;96824.00;;;;5047800;28;20307;-84
2022/06/02 11:00:20;;;;;;;0.95;0.65;;;33.20;42.30;32.60;96817.00;;;;5072969;28;20357;-84
2022/06/02 11:03:54;;;;;;;1.17;1.00;;;32.80;43.10;32.40;96813.00;;;;5073915;28;20801;-84
2022/06/02 11:07:15;;;;;;;0.45;0.45;;;32.50;42.90;32.20;96815.00;;;;5072413;28;20210;-84
2022/06/02 11:10:21;;;;;;;4.22;0.90;;;32.10;41.60;32.00;96815.00;;;;5073479;28;20214;-84
2022/06/02 11:13:36;;;;;;;0.55;0.55;;;31.80;41.70;31.80;96812.00;;;;5072229;28;20260;-84
2022/06/02 11:17:05;;;;;;;2.00;1.10;;;31.50;42.90;31.60;96812.00;;;;5071146;28;20200;-84
2022/06/02 11:20:23;;;;;;;1.30;1.17;;;31.20;43.00;31.30;96812.00;;;;5071478;28;20234;-84
2022/06/02 11:23:46;;;;;;;1.20;1.10;;;30.90;43.90;31.10;96804.00;;;;5071974;28;20261;-84
2022/06/02 11:27:06;;;;;;;1.50;1.40;;;30.60;44.50;30.90;96804.00;;;;5072785;28;20204;-84
2022/06/02 11:30:47;;;;;;;1.00;1.00;;;30.40;43.50;30.60;96795.00;;;;5072601;28;20220;-84
2022/06/02 11:33:48;;;;;;;3.70;0.90;;;30.00;43.90;30.40;96797.00;;;;5044414;28;20204;-84
2022/06/02 11:37:19;;;;;;;1.17;1.08;;;29.80;45.40;30.20;96792.00;;;;5073028;28;20282;-84
2022/06/02 11:40:33;;;;;;;0.85;0.70;;;29.60;45.30;30.00;96793.00;;;;5073249;28;20673;-84
2022/06/02 11:43:24;;;;;;;2.17;1.20;;;29.40;46.50;29.80;96780.00;;;;5045262;28;20279;-83
2022/06/02 11:46:25;;;;;;;1.15;1.15;;;29.20;47.20;29.70;96776.00;;;;5072817;28;20199;-84
2022/06/02 11:49:43;;;;;;;1.08;0.98;;;29.00;44.70;29.40;96775.00;;;;5072665;28;20251;-84
2022/06/02 11:52:43;;;;;;;1.60;0.90;;;28.90;46.60;29.30;96765.00;;;;5052847;28;20201;-84
2022/06/02 11:55:27;;;;;;;1.00;1.00;;;28.70;46.50;29.20;96776.00;;;;5060627;28;20254;-84
2022/06/02 11:58:34;;;;;;;2.05;1.20;;;28.50;46.20;29.10;96770.00;;;;5072225;28;20220;-84
2022/06/02 12:01:46;;;;;;;1.00;1.00;;;28.40;46.00;29.10;96771.00;;;;5060646;28;20231;-84
2022/06/02 12:04:39;;;;;;;1.23;1.10;;;28.30;46.00;29.00;96763.00;;;;5072326;28;20204;-84
2022/06/02 12:07:44;;;;;;;1.25;0.98;;;28.20;45.50;29.00;96751.00;;;;5072113;28;20210;-84
2022/06/02 12:11:01;;;;;;;1.48;1.10;;;28.10;46.30;29.00;96760.00;;;;5072472;28;20727;-84
2022/06/02 12:14:21;;;;;;;0.70;0.70;;;28.10;47.60;28.90;96753.00;;;;5064605;28;20204;-84
2022/06/02 12:17:32;;;;;;;1.52;0.95;;;28.00;47.30;29.00;96755.00;;;;5071527;28;20196;-84
2022/06/02 12:20:45;;;;;;;0.80;0.80;;;28.00;47.40;29.00;96750.00;;;;5071840;28;20200;-84
2022/06/02 12:23:59;;;;;;;0.80;0.80;;;28.00;48.40;29.00;96755.00;;;;5072311;28;20605;-84
2022/06/02 12:26:48;;;;;;;0.80;0.80;;;28.00;46.70;29.00;96755.00;;;;5010109;28;20211;-84
2022/06/02 12:29:36;;;;;;;1.27;1.17;;;28.00;47.70;28.90;96758.00;;;;5071759;28;20230;-85
2022/06/02 12:38:11;;;;;;;1.70;1.15;;;28.00;48.80;29.00;96766.00;;;;5068634;28;20228;-85
2022/06/02 12:41:19;;;;;;;1.35;1.27;;;28.00;48.40;29.10;96766.00;;;;5026245;28;20279;-87
2022/06/02 12:44:29;;;;;;;3.17;0.98;;;28.00;49.00;29.20;96761.00;;;;5051884;28;20203;-87
2022/06/02 12:47:53;;;;;;;4.22;1.30;;;28.10;48.50;29.30;96770.00;;;;5050771;28;20258;-86
2022/06/02 12:51:00;;;;;;;1.35;1.25;;;28.20;47.90;29.20;96754.00;;;;5066890;28;20920;-86
2022/06/02 12:54:48;;;;;;;1.25;1.20;;;28.20;46.80;29.20;96764.00;;;;5071392;28;20196;-86
2022/06/02 12:58:19;;;;;;;1.15;1.05;;;28.20;47.50;29.20;96764.00;;;;5071705;28;20628;-85
2022/06/02 13:01:08;;;;;;;0.85;0.85;;;28.20;47.20;29.10;96755.00;;;;5053892;28;20610;-86
2022/06/02 13:04:45;;;;;;;1.48;0.88;;;28.20;48.10;29.10;96756.00;;;;5071488;28;20208;-87
2022/06/02 13:08:18;;;;;;;1.48;1.35;;;28.20;47.70;29.10;96761.00;;;;5068488;28;20249;-87
2022/06/02 13:11:14;;;;;;;0.93;0.93;;;28.10;48.90;29.00;96763.00;;;;5069039;28;20224;-86
2022/06/02 13:14:15;;;;;;;1.25;1.15;;;28.10;49.00;29.00;96757.00;;;;5069335;28;20180;-86
2022/06/02 13:17:18;;;;;;;1.63;1.40;;;28.10;48.80;29.00;96743.00;;;;5068002;28;20261;-87
2022/06/02 13:20:37;;;;;;;1.10;1.10;;;28.00;49.10;29.00;96736.00;;;;5068832;28;20287;-87